createdAt,value
2022-10-22T00:00:39.277Z,2.38
2022-10-22T00:03:06.291Z,3.13
2022-10-22T00:05:33.182Z,2.42
2022-10-22T00:07:59.976Z,3.15
2022-10-22T00:10:26.894Z,3.00
2022-10-22T00:12:53.758Z,2.67
2022-10-22T00:15:20.717Z,2.90
2022-10-22T00:17:49.590Z,3.03
2022-10-22T00:20:16.591Z,2.83
2022-10-22T00:22:43.499Z,3.10
2022-10-22T00:25:10.364Z,3.05
2022-10-22T00:27:37.313Z,2.78
2022-10-22T00:30:04.625Z,2.85
2022-10-22T00:32:31.501Z,3.15
2022-10-22T00:34:58.345Z,2.80
2022-10-22T00:37:25.333Z,2.83
2022-10-22T00:39:52.179Z,2.92
2022-10-22T00:42:22.790Z,2.78
2022-10-22T00:45:15.860Z,3.72
2022-10-22T00:48:08.996Z,2.47
2022-10-22T00:50:43.920Z,2.90
2022-10-22T00:53:14.853Z,3.25
2022-10-22T00:55:43.957Z,2.83
2022-10-22T00:58:12.140Z,2.42
2022-10-22T01:00:39.317Z,2.72
2022-10-22T01:03:06.826Z,3.28
2022-10-22T01:05:43.366Z,2.58
2022-10-22T01:08:25.416Z,2.05
2022-10-22T01:11:10.745Z,2.40
2022-10-22T01:13:49.652Z,2.20
2022-10-22T01:16:31.527Z,2.65
2022-10-22T01:19:24.730Z,2.72
2022-10-22T01:22:04.148Z,2.75
2022-10-22T01:24:53.493Z,2.17
2022-10-22T01:27:47.733Z,2.67
2022-10-22T01:30:15.896Z,2.67
2022-10-22T01:33:04.993Z,2.20
2022-10-22T01:35:36.924Z,2.20
2022-10-22T01:38:08.850Z,2.47
2022-10-22T01:40:36.571Z,2.58
2022-10-22T01:43:07.020Z,1.90
2022-10-22T01:45:37.464Z,3.03
2022-10-22T01:48:07.529Z,2.22
2022-10-22T01:50:43.325Z,2.47
2022-10-22T01:54:14.920Z,2.53
2022-10-22T01:57:18.014Z,2.45
2022-10-22T02:00:23.788Z,2.30
2022-10-22T02:03:05.977Z,2.60
2022-10-22T02:05:47.943Z,2.35
2022-10-22T02:08:35.834Z,2.05
2022-10-22T02:11:04.364Z,2.50
2022-10-22T02:13:37.578Z,2.65
2022-10-22T02:16:08.051Z,2.72
2022-10-22T02:18:39.484Z,2.50
2022-10-22T02:23:39.463Z,2.40
2022-10-22T02:26:22.096Z,2.10
2022-10-22T02:29:13.650Z,2.10
2022-10-22T02:31:44.788Z,2.10
2022-10-22T02:34:17.267Z,2.05
2022-10-22T02:36:48.096Z,2.38
2022-10-22T02:39:19.216Z,1.98
2022-10-22T02:41:46.011Z,1.80
2022-10-22T02:44:12.816Z,1.98
2022-10-22T02:46:41.014Z,2.10
2022-10-22T02:49:07.935Z,1.98
2022-10-22T02:51:34.811Z,1.92
2022-10-22T02:54:01.835Z,2.13
2022-10-22T02:56:28.646Z,2.22
2022-10-22T02:58:55.686Z,2.15
2022-10-22T03:01:22.734Z,1.77
2022-10-22T03:03:50.014Z,2.30
2022-10-22T03:06:17.670Z,2.00
2022-10-22T03:08:44.637Z,1.83
2022-10-22T03:11:11.518Z,2.10
2022-10-22T03:13:38.401Z,2.00
2022-10-22T03:16:05.632Z,2.13
2022-10-22T03:18:32.502Z,2.20
2022-10-22T03:21:12.619Z,2.17
2022-10-22T03:23:42.178Z,1.77
2022-10-22T03:26:10.212Z,1.67
2022-10-22T03:28:38.209Z,2.00
2022-10-22T03:31:05.221Z,1.50
2022-10-22T03:33:32.071Z,1.88
2022-10-22T03:36:00.510Z,2.22
2022-10-22T03:38:27.412Z,1.40
2022-10-22T03:40:54.223Z,2.05
2022-10-22T03:43:21.156Z,1.90
2022-10-22T03:45:48.028Z,1.75
2022-10-22T03:48:14.877Z,1.35
2022-10-22T03:50:41.809Z,1.75
2022-10-22T03:53:10.620Z,1.48
2022-10-22T03:55:38.350Z,2.03
2022-10-22T03:58:05.662Z,1.63
2022-10-22T04:00:34.417Z,1.30
2022-10-22T04:03:01.456Z,1.80
2022-10-22T04:05:28.326Z,2.15
2022-10-22T04:07:55.195Z,2.03
2022-10-22T04:10:22.056Z,1.55
2022-10-22T04:12:48.984Z,1.33
2022-10-22T04:15:16.271Z,1.60
2022-10-22T04:17:43.346Z,1.90
2022-10-22T04:20:11.071Z,1.95
2022-10-22T04:22:38.031Z,1.80
2022-10-22T04:25:05.517Z,1.42
2022-10-22T04:27:33.451Z,1.50
2022-10-22T04:30:00.416Z,1.65
2022-10-22T04:32:28.117Z,2.00
2022-10-22T04:34:55.005Z,1.50
2022-10-22T04:37:22.271Z,2.00
2022-10-22T04:39:49.357Z,1.58
2022-10-22T04:42:16.326Z,2.65
2022-10-22T04:44:43.193Z,1.58
2022-10-22T04:47:10.044Z,1.88
2022-10-22T04:49:36.982Z,1.52
2022-10-22T04:52:03.855Z,1.50
2022-10-22T04:54:33.045Z,1.65
2022-10-22T04:57:00.448Z,1.85
2022-10-22T04:59:27.368Z,1.60
2022-10-22T05:01:54.363Z,1.65
2022-10-22T05:04:21.203Z,1.63
2022-10-22T05:06:48.094Z,1.73
2022-10-22T05:09:18.032Z,1.88
2022-10-22T05:11:48.591Z,1.95
2022-10-22T05:14:18.434Z,1.95
2022-10-22T05:16:48.230Z,1.50
2022-10-22T05:19:24.290Z,1.40
2022-10-22T05:21:53.410Z,1.48
2022-10-22T05:24:20.905Z,1.80
2022-10-22T05:26:51.909Z,1.55
2022-10-22T05:29:19.606Z,1.60
2022-10-22T05:31:46.499Z,1.85
2022-10-22T05:34:13.634Z,2.00
2022-10-22T05:36:40.746Z,1.63
2022-10-22T05:39:15.233Z,1.40
2022-10-22T05:41:42.030Z,1.75
2022-10-22T05:44:12.162Z,2.03
2022-10-22T05:46:39.269Z,1.67
2022-10-22T05:49:07.365Z,2.08
2022-10-22T05:51:36.355Z,1.45
2022-10-22T05:54:05.947Z,2.20
2022-10-22T05:56:33.537Z,1.25
2022-10-22T06:01:35.448Z,1.30
2022-10-22T06:04:05.546Z,1.75
2022-10-22T06:06:47.507Z,1.63
2022-10-22T06:09:22.295Z,1.70
2022-10-22T06:11:49.881Z,1.52
2022-10-22T06:14:18.157Z,1.60
2022-10-22T06:16:45.089Z,1.55
2022-10-22T06:19:13.552Z,1.50
2022-10-22T06:21:40.694Z,1.45
2022-10-22T06:24:07.903Z,1.60
2022-10-22T06:26:34.736Z,1.70
2022-10-22T06:29:01.969Z,1.10
2022-10-22T06:31:29.737Z,1.63
2022-10-22T06:33:57.369Z,1.42
2022-10-22T06:36:24.783Z,1.83
2022-10-22T06:38:53.658Z,2.42
2022-10-22T06:41:22.957Z,1.73
2022-10-22T06:43:54.184Z,1.70
2022-10-22T06:46:22.071Z,1.23
2022-10-22T06:48:54.343Z,1.80
2022-10-22T06:51:21.541Z,1.77
2022-10-22T06:53:49.262Z,1.27
2022-10-22T06:56:18.899Z,1.30
2022-10-22T06:58:53.377Z,1.70
2022-10-22T07:01:23.590Z,1.80
2022-10-22T07:03:51.841Z,1.50
2022-10-22T07:06:19.462Z,1.30
2022-10-22T07:08:46.373Z,1.50
2022-10-22T07:11:35.311Z,2.10
2022-10-22T07:14:02.157Z,1.52
2022-10-22T07:16:32.241Z,1.10
2022-10-22T07:19:01.696Z,1.70
2022-10-22T07:21:29.576Z,1.52
2022-10-22T07:23:56.750Z,1.33
2022-10-22T07:26:25.452Z,1.83
2022-10-22T07:28:52.737Z,1.42
2022-10-22T07:31:19.901Z,2.00
2022-10-22T07:33:46.974Z,1.63
2022-10-22T07:36:17.550Z,1.45
2022-10-22T07:38:49.947Z,1.73
2022-10-22T07:41:17.522Z,1.88
2022-10-22T07:43:45.354Z,1.70
2022-10-22T07:46:12.536Z,1.38
2022-10-22T07:48:39.487Z,1.60
2022-10-22T07:51:07.153Z,1.48
2022-10-22T07:53:34.422Z,1.60
2022-10-22T07:56:01.636Z,1.45
2022-10-22T07:58:28.934Z,1.38
2022-10-22T08:00:57.529Z,1.55
2022-10-22T08:03:24.673Z,1.60
2022-10-22T08:05:52.294Z,1.60
2022-10-22T08:08:19.620Z,1.30
2022-10-22T08:10:48.347Z,1.33
2022-10-22T08:13:15.414Z,1.65
2022-10-22T08:18:14.938Z,1.30
2022-10-22T08:20:42.623Z,1.60
2022-10-22T08:23:10.139Z,1.70
2022-10-22T08:25:37.864Z,1.60
2022-10-22T08:28:04.885Z,1.63
2022-10-22T08:30:33.975Z,1.60
2022-10-22T08:33:01.160Z,1.45
2022-10-22T08:35:28.376Z,1.38
2022-10-22T08:37:55.234Z,1.45
2022-10-22T08:40:28.075Z,2.45
2022-10-22T08:42:57.855Z,1.55
2022-10-22T08:45:39.842Z,1.55
2022-10-22T08:48:06.840Z,1.77
2022-10-22T08:50:41.062Z,1.83
2022-10-22T08:53:41.637Z,1.70
2022-10-22T08:56:08.510Z,1.83
2022-10-22T08:58:42.314Z,2.10
2022-10-22T09:01:21.078Z,1.40
2022-10-22T09:04:01.202Z,2.20
2022-10-22T09:06:31.685Z,3.10
2022-10-22T09:09:00.370Z,2.20
2022-10-22T09:11:39.372Z,2.10
2022-10-22T09:14:09.190Z,2.10
2022-10-22T09:16:36.193Z,2.00
2022-10-22T09:19:38.486Z,1.77
2022-10-22T09:22:20.314Z,1.48
2022-10-22T09:24:52.128Z,1.38
2022-10-22T09:27:27.408Z,1.52
2022-10-22T09:29:54.393Z,2.13
2022-10-22T09:32:21.336Z,2.00
2022-10-22T09:34:50.078Z,2.22
2022-10-22T09:37:19.563Z,1.60
2022-10-22T09:39:48.549Z,1.75
2022-10-22T09:42:17.622Z,2.30
2022-10-22T09:44:50.231Z,2.35
2022-10-22T09:47:43.405Z,2.08
2022-10-22T09:50:28.691Z,2.05
2022-10-22T09:53:14.943Z,1.75
2022-10-22T09:55:43.326Z,2.20
2022-10-22T09:58:14.061Z,2.00
2022-10-22T10:00:44.056Z,2.22
2022-10-22T10:03:23.872Z,1.80
2022-10-22T10:06:01.403Z,1.38
2022-10-22T10:08:32.013Z,1.40
2022-10-22T10:11:14.548Z,1.70
2022-10-22T10:13:53.184Z,1.60
2022-10-22T10:16:38.731Z,1.55
2022-10-22T10:19:42.039Z,1.73
2022-10-22T10:22:23.083Z,1.33
2022-10-22T10:25:27.488Z,1.58
2022-10-22T10:28:09.232Z,1.50
2022-10-22T10:30:42.502Z,2.50
2022-10-22T10:33:19.443Z,1.60
2022-10-22T10:35:49.427Z,2.30
2022-10-22T10:38:39.550Z,1.45
2022-10-22T10:41:44.051Z,1.42
2022-10-22T10:44:31.751Z,2.42
2022-10-22T10:47:26.043Z,1.95
2022-10-22T10:50:02.372Z,1.52
2022-10-22T10:52:56.372Z,1.92
2022-10-22T10:55:30.811Z,1.65
2022-10-22T10:58:25.674Z,1.95
2022-10-22T11:01:11.451Z,1.60
2022-10-22T11:03:59.949Z,1.70
2022-10-22T11:06:28.295Z,2.15
2022-10-22T11:09:04.097Z,1.60
2022-10-22T11:11:41.750Z,3.17
2022-10-22T11:14:19.936Z,1.20
2022-10-22T11:17:10.698Z,1.38
2022-10-22T11:19:53.833Z,1.70
2022-10-22T11:22:44.476Z,1.67
2022-10-22T11:25:24.559Z,1.70
2022-10-22T11:28:07.859Z,1.40
2022-10-22T11:30:39.179Z,1.35
2022-10-22T11:33:11.606Z,1.67
2022-10-22T11:35:42.590Z,2.20
2022-10-22T11:38:15.080Z,2.30
2022-10-22T11:41:01.853Z,3.70
2022-10-22T11:43:33.055Z,2.50
2022-10-22T11:46:14.951Z,1.83
2022-10-22T11:48:42.236Z,1.75
2022-10-22T11:51:38.296Z,2.25
2022-10-22T11:54:30.183Z,1.90
2022-10-22T11:57:15.344Z,2.00
2022-10-22T11:59:59.187Z,5.72
2022-10-22T12:02:40.224Z,2.08
2022-10-22T12:05:22.899Z,1.60
2022-10-22T12:08:14.788Z,2.08
2022-10-22T12:11:11.874Z,2.10
2022-10-22T12:13:58.749Z,1.52
2022-10-22T12:16:56.061Z,1.80
2022-10-22T12:19:23.366Z,2.47
2022-10-22T12:22:20.818Z,2.22
2022-10-22T12:24:51.861Z,1.98
2022-10-22T12:27:23.479Z,1.42
2022-10-22T12:29:55.891Z,2.10
2022-10-22T12:32:23.906Z,1.75
2022-10-22T12:34:52.311Z,2.60
2022-10-22T12:37:20.202Z,1.65
2022-10-22T12:39:47.330Z,4.47
2022-10-22T12:42:16.951Z,1.73
2022-10-22T12:44:45.149Z,1.92
2022-10-22T12:47:18.902Z,1.60
2022-10-22T12:49:50.691Z,1.90
2022-10-22T12:52:21.442Z,2.20
2022-10-22T12:54:52.430Z,3.42
2022-10-22T12:57:20.987Z,2.03
2022-10-22T12:59:51.101Z,1.98
2022-10-22T13:02:17.935Z,1.77
2022-10-22T13:05:15.154Z,1.50
2022-10-22T13:07:45.068Z,1.52
2022-10-22T13:10:25.105Z,1.65
2022-10-22T13:12:56.001Z,1.52
2022-10-22T13:15:31.696Z,1.70
2022-10-22T13:18:17.702Z,1.33
2022-10-22T13:21:03.139Z,1.55
2022-10-22T13:23:32.668Z,1.75
2022-10-22T13:26:16.527Z,1.70
2022-10-22T13:28:50.340Z,1.70
2022-10-22T13:31:25.276Z,1.67
2022-10-22T13:33:56.175Z,1.30
2022-10-22T13:36:23.856Z,1.52
2022-10-22T13:38:51.237Z,1.60
2022-10-22T13:41:26.586Z,1.83
2022-10-22T13:43:54.498Z,1.58
2022-10-22T13:46:22.460Z,1.60
2022-10-22T13:48:52.846Z,1.52
2022-10-22T13:51:33.426Z,1.50
2022-10-22T13:54:00.985Z,1.65
2022-10-22T13:56:27.774Z,1.17
2022-10-22T13:58:54.666Z,1.75
2022-10-22T14:01:24.839Z,1.27
2022-10-22T14:03:54.675Z,1.20
2022-10-22T14:06:22.891Z,1.25
2022-10-22T14:08:56.206Z,1.90
2022-10-22T14:11:23.204Z,1.25
2022-10-22T14:13:50.213Z,1.40
2022-10-22T14:16:20.801Z,1.60
2022-10-22T14:18:48.799Z,1.30
2022-10-22T14:21:16.786Z,1.38
2022-10-22T14:23:45.931Z,1.55
2022-10-22T14:26:23.720Z,1.70
2022-10-22T14:29:11.954Z,1.30
2022-10-22T14:34:13.350Z,1.40
2022-10-22T14:36:40.343Z,1.33
2022-10-22T14:39:07.217Z,2.20
2022-10-22T14:41:34.316Z,3.45
2022-10-22T14:44:01.747Z,2.08
2022-10-22T14:46:28.728Z,1.65
2022-10-22T14:48:55.545Z,1.45
2022-10-22T14:51:23.222Z,1.60
2022-10-22T14:53:50.372Z,1.40
2022-10-22T14:56:21.474Z,1.95
2022-10-22T14:58:48.967Z,1.60
2022-10-22T15:01:16.089Z,1.85
2022-10-22T15:03:43.232Z,1.50
2022-10-22T15:06:10.284Z,1.10
2022-10-22T15:08:37.285Z,1.30
2022-10-22T15:11:10.910Z,1.40
2022-10-22T15:13:37.973Z,1.38
2022-10-22T15:16:07.064Z,1.58
2022-10-22T15:18:34.064Z,1.60
2022-10-22T15:21:04.360Z,1.65
2022-10-22T15:23:31.675Z,1.65
2022-10-22T15:25:58.475Z,1.52
2022-10-22T15:28:26.150Z,1.50
2022-10-22T15:30:57.449Z,1.52
2022-10-22T15:33:25.284Z,1.70
2022-10-22T15:35:52.550Z,1.58
2022-10-22T15:38:20.166Z,1.85
2022-10-22T15:40:46.984Z,1.48
2022-10-22T15:43:14.393Z,1.40
2022-10-22T15:45:41.316Z,1.02
2022-10-22T15:48:09.095Z,1.60
2022-10-22T15:50:38.710Z,1.42
2022-10-22T15:53:05.951Z,1.27
2022-10-22T15:55:32.927Z,1.48
2022-10-22T15:58:01.922Z,3.15
2022-10-22T16:00:32.222Z,2.63
2022-10-22T16:02:59.132Z,2.70
2022-10-22T16:05:27.773Z,2.90
2022-10-22T16:07:56.515Z,2.70
2022-10-22T16:10:24.406Z,1.95
2022-10-22T16:12:51.776Z,2.00
2022-10-22T16:15:18.689Z,1.70
2022-10-22T16:17:45.520Z,1.70
2022-10-22T16:22:40.582Z,1.92
2022-10-22T16:25:08.165Z,1.80
2022-10-22T16:27:35.027Z,1.80
2022-10-22T16:30:02.194Z,2.13
2022-10-22T16:32:29.122Z,1.88
2022-10-22T16:34:55.948Z,2.13
2022-10-22T16:37:22.887Z,2.08
2022-10-22T16:39:49.862Z,2.10
2022-10-22T16:42:17.200Z,2.20
2022-10-22T16:44:44.229Z,2.42
2022-10-22T16:47:11.189Z,2.65
2022-10-22T16:49:38.056Z,2.10
2022-10-22T16:52:05.155Z,2.08
2022-10-22T16:54:32.013Z,2.80
2022-10-22T16:56:58.959Z,2.88
2022-10-22T16:59:25.784Z,3.03
2022-10-22T17:01:52.700Z,2.42
2022-10-22T17:04:19.799Z,2.65
2022-10-22T17:06:46.646Z,2.75
2022-10-22T17:09:14.138Z,2.80
2022-10-22T17:11:42.624Z,2.05
2022-10-22T17:14:11.254Z,2.35
2022-10-22T17:16:38.352Z,2.70
2022-10-22T17:19:05.521Z,2.78
2022-10-22T17:21:33.749Z,3.20
2022-10-22T17:24:00.607Z,3.35
2022-10-22T17:26:27.736Z,3.30
2022-10-22T17:28:55.186Z,3.72
2022-10-22T17:31:24.785Z,3.63
2022-10-22T17:33:55.979Z,3.42
2022-10-22T17:36:24.164Z,4.47
2022-10-22T17:38:53.890Z,4.68
2022-10-22T17:41:25.605Z,3.58
2022-10-22T17:43:52.771Z,5.50
2022-10-22T17:46:21.937Z,5.03
2022-10-22T17:48:50.580Z,3.95
2022-10-22T17:51:18.854Z,5.10
2022-10-22T17:53:46.641Z,4.32
2022-10-22T17:56:15.572Z,4.43
2022-10-22T17:58:42.616Z,4.03
2022-10-22T18:01:25.054Z,4.72
2022-10-22T18:03:53.623Z,5.50
2022-10-22T18:06:21.469Z,4.18
2022-10-22T18:08:48.727Z,4.70
2022-10-22T18:11:21.477Z,4.25
2022-10-22T18:13:53.166Z,4.00
2022-10-22T18:16:20.650Z,4.65
2022-10-22T18:18:49.100Z,4.80
2022-10-22T18:21:17.290Z,4.90
2022-10-22T18:23:45.046Z,4.70
2022-10-22T18:26:12.319Z,5.15
2022-10-22T18:28:39.256Z,4.85
2022-10-22T18:31:08.388Z,5.18
2022-10-22T18:33:36.805Z,5.03
2022-10-22T18:36:09.234Z,5.20
2022-10-22T18:38:38.295Z,4.82
2022-10-22T18:41:10.014Z,4.93
2022-10-22T18:43:37.106Z,5.15
2022-10-22T18:46:07.195Z,5.55
2022-10-22T18:48:37.734Z,5.05
2022-10-22T18:51:07.953Z,4.95
2022-10-22T18:53:36.482Z,5.55
2022-10-22T18:56:08.737Z,5.57
2022-10-22T18:58:45.119Z,5.40
2022-10-22T19:01:19.201Z,5.78
2022-10-22T19:03:46.706Z,6.03
2022-10-22T19:06:15.237Z,5.50
2022-10-22T19:08:42.628Z,4.93
2022-10-22T19:11:12.330Z,5.70
2022-10-22T19:13:39.808Z,6.03
2022-10-22T19:16:08.377Z,5.63
2022-10-22T19:18:36.824Z,6.05
2022-10-22T19:21:04.263Z,5.75
2022-10-22T19:23:31.724Z,5.65
2022-10-22T19:26:01.821Z,6.07
2022-10-22T19:28:28.875Z,5.30
2022-10-22T19:30:55.888Z,5.28
2022-10-22T19:33:23.039Z,6.20
2022-10-22T19:35:49.999Z,5.88
2022-10-22T19:38:16.869Z,5.97
2022-10-22T19:40:43.788Z,5.65
2022-10-22T19:43:11.507Z,5.80
2022-10-22T19:45:44.394Z,5.68
2022-10-22T19:48:11.570Z,6.78
2022-10-22T19:50:38.534Z,6.25
2022-10-22T19:53:05.478Z,5.85
2022-10-22T19:55:32.341Z,7.57
2022-10-22T19:57:59.125Z,6.50
2022-10-22T20:00:26.288Z,5.97
2022-10-22T20:02:53.207Z,5.90
2022-10-22T20:05:20.147Z,5.32
2022-10-22T20:07:47.087Z,5.30
2022-10-22T20:10:14.034Z,6.00
2022-10-22T20:12:40.911Z,5.88
2022-10-22T20:15:08.916Z,5.68
2022-10-22T20:17:35.866Z,5.85
2022-10-22T20:20:02.790Z,5.63
2022-10-22T20:22:29.714Z,5.13
2022-10-22T20:24:56.579Z,5.40
2022-10-22T20:27:23.560Z,5.82
2022-10-22T20:29:50.484Z,5.40
2022-10-22T20:32:17.540Z,5.28
2022-10-22T20:34:44.556Z,5.28
2022-10-22T20:37:11.443Z,5.78
2022-10-22T20:39:38.326Z,4.40
2022-10-22T20:42:05.327Z,5.97
2022-10-22T20:44:32.214Z,5.68
2022-10-22T20:46:59.144Z,5.00
2022-10-22T20:49:26.819Z,4.80
2022-10-22T20:51:53.828Z,4.43
2022-10-22T20:54:20.717Z,5.13
2022-10-22T20:56:48.121Z,4.40
2022-10-22T20:59:15.737Z,4.65
2022-10-22T21:01:50.854Z,4.38
2022-10-22T21:04:19.833Z,4.15
2022-10-22T21:06:48.661Z,3.95
2022-10-22T21:09:15.741Z,3.63
2022-10-22T21:11:43.949Z,3.83
2022-10-22T21:14:12.608Z,3.95
2022-10-22T21:16:49.321Z,3.70
2022-10-22T21:19:17.323Z,4.00
2022-10-22T21:21:44.146Z,4.05
2022-10-22T21:24:11.356Z,4.60
2022-10-22T21:26:39.052Z,3.53
2022-10-22T21:29:06.084Z,3.92
2022-10-22T21:31:33.002Z,3.72
2022-10-22T21:33:59.817Z,3.10
2022-10-22T21:36:26.812Z,3.60
2022-10-22T21:38:54.241Z,3.83
2022-10-22T21:41:23.616Z,3.70
2022-10-22T21:43:51.958Z,3.53
2022-10-22T21:46:21.069Z,4.05
2022-10-22T21:48:52.863Z,3.42
2022-10-22T21:51:20.709Z,3.45
2022-10-22T21:53:48.068Z,3.45
2022-10-22T21:56:17.678Z,3.08
2022-10-22T21:58:44.648Z,3.95
2022-10-22T22:01:12.379Z,3.45
2022-10-22T22:03:42.753Z,3.03
2022-10-22T22:06:09.799Z,3.15
2022-10-22T22:08:36.966Z,2.53
2022-10-22T22:11:24.485Z,3.08
2022-10-22T22:13:52.969Z,3.40
2022-10-22T22:16:29.161Z,3.60
2022-10-22T22:18:58.670Z,3.13
2022-10-22T22:21:25.793Z,3.60
2022-10-22T22:23:52.822Z,3.83
2022-10-22T22:26:25.430Z,3.17
2022-10-22T22:28:56.264Z,3.53
2022-10-22T22:31:29.425Z,2.80
2022-10-22T22:34:12.794Z,3.58
2022-10-22T22:36:42.081Z,3.45
2022-10-22T22:39:12.986Z,3.33
2022-10-22T22:41:40.946Z,3.10
2022-10-22T22:44:07.915Z,2.83
2022-10-22T22:46:35.560Z,3.22
2022-10-22T22:49:02.441Z,3.92
2022-10-22T22:51:29.403Z,3.33
2022-10-22T22:53:58.018Z,3.45
2022-10-22T22:56:27.682Z,3.58
2022-10-22T22:58:55.438Z,4.10
2022-10-22T23:01:23.656Z,2.83
2022-10-22T23:03:59.112Z,3.25
2022-10-22T23:06:32.233Z,3.00
2022-10-22T23:08:59.618Z,3.08
2022-10-22T23:11:28.001Z,3.47
2022-10-22T23:14:00.807Z,2.83
2022-10-22T23:16:30.427Z,3.35
2022-10-22T23:18:58.303Z,3.00
2022-10-22T23:21:31.037Z,2.80
2022-10-22T23:24:01.072Z,2.80
2022-10-22T23:26:34.313Z,3.00
2022-10-22T23:29:06.178Z,2.80
2022-10-22T23:31:33.460Z,3.58
2022-10-22T23:34:00.654Z,3.17
2022-10-22T23:36:28.315Z,2.75
2022-10-22T23:38:55.761Z,2.97
2022-10-22T23:41:22.778Z,3.03
2022-10-22T23:43:50.604Z,2.63
2022-10-22T23:46:17.445Z,2.75
2022-10-22T23:48:44.307Z,2.50
2022-10-22T23:51:13.879Z,2.65
2022-10-22T23:53:41.996Z,2.60
2022-10-22T23:56:19.086Z,2.63
2022-10-22T23:58:48.894Z,2.75
